createdAt,value
2017-10-29T00:00:52.870Z,98836.07
2017-10-29T00:03:20.488Z,98839.78
2017-10-29T00:05:48.309Z,98823.58
2017-10-29T00:08:15.911Z,98815.97
2017-10-29T00:10:43.582Z,98814.01
2017-10-29T00:13:11.158Z,98808.33
2017-10-29T00:15:38.773Z,98793.34
2017-10-29T00:18:06.410Z,98782.25
2017-10-29T00:20:33.999Z,98779.66
2017-10-29T00:23:01.616Z,98753.57
2017-10-29T00:25:29.205Z,98750.89
2017-10-29T00:27:56.806Z,98726.17
2017-10-29T00:30:24.433Z,98724.95
2017-10-29T00:32:52.028Z,98721.53
2017-10-29T00:35:19.626Z,98712.59
2017-10-29T00:37:47.234Z,98701.75
2017-10-29T00:40:15.107Z,98688.46
2017-10-29T00:42:42.725Z,98679.61
2017-10-29T00:45:10.640Z,98672.97
2017-10-29T00:47:38.227Z,98658.42
2017-10-29T00:50:06.173Z,98670.11
2017-10-29T00:52:33.761Z,98643.61
2017-10-29T00:55:01.379Z,98628.39
2017-10-29T00:57:28.950Z,98628.28
2017-10-29T00:59:56.579Z,98612.36
2017-10-29T01:02:24.186Z,98594.16
2017-10-29T01:04:51.765Z,98593.57
2017-10-29T01:07:19.381Z,98576.26
2017-10-29T01:09:46.950Z,98565.16
2017-10-29T01:12:14.542Z,98561.06
2017-10-29T01:14:42.153Z,98548.45
2017-10-29T01:17:10.061Z,98531.59
2017-10-29T01:19:37.685Z,98525.09
2017-10-29T01:22:05.263Z,98508.02
2017-10-29T01:24:32.845Z,98500.34
2017-10-29T01:27:00.453Z,98493.11
2017-10-29T01:29:28.049Z,98488.31
2017-10-29T01:31:55.677Z,98483.08
2017-10-29T01:34:23.266Z,98458.22
2017-10-29T01:36:50.855Z,98445.33
2017-10-29T01:39:18.476Z,98441.95
2017-10-29T01:41:46.056Z,98440.78
2017-10-29T01:44:13.672Z,98422.25
2017-10-29T01:46:41.302Z,98424.75
2017-10-29T01:49:08.885Z,98421.66
2017-10-29T01:51:36.532Z,98400.06
2017-10-29T01:54:04.389Z,98385.81
2017-10-29T01:56:32.360Z,98371.75
2017-10-29T01:58:59.951Z,98363.31
2017-10-29T02:01:27.760Z,98377.33
2017-10-29T02:03:55.380Z,98377.56
2017-10-29T02:06:23.001Z,98328.28
2017-10-29T02:08:50.626Z,98309.17
2017-10-29T02:11:18.221Z,98302.23
2017-10-29T02:13:46.108Z,98309.32
2017-10-29T02:16:13.975Z,98312.52
2017-10-29T02:18:41.540Z,98287.84
2017-10-29T02:21:09.165Z,98301.25
2017-10-29T02:23:36.758Z,98295.02
2017-10-29T02:26:04.349Z,98285.44
2017-10-29T02:28:31.983Z,98274.70
2017-10-29T02:30:59.559Z,98268.45
2017-10-29T02:33:27.190Z,98235.04
2017-10-29T02:35:54.774Z,98256.08
2017-10-29T02:38:22.351Z,98235.64
2017-10-29T02:40:50.001Z,98240.27
2017-10-29T02:43:17.582Z,98231.97
2017-10-29T02:45:45.209Z,98259.20
2017-10-29T02:48:12.796Z,98231.22
2017-10-29T02:50:40.386Z,98187.89
2017-10-29T02:53:07.997Z,98169.36
2017-10-29T02:55:35.607Z,98169.68
2017-10-29T02:58:03.231Z,98176.41
2017-10-29T03:00:30.833Z,98175.09
2017-10-29T03:02:58.412Z,98184.53
2017-10-29T03:05:26.019Z,98150.64
2017-10-29T03:07:53.640Z,98142.61
2017-10-29T03:10:21.257Z,98136.31
2017-10-29T03:12:48.832Z,98156.80
2017-10-29T03:15:16.763Z,98154.25
2017-10-29T03:17:44.736Z,98153.14
2017-10-29T03:20:12.603Z,98150.72
2017-10-29T03:22:40.580Z,98121.81
2017-10-29T03:25:08.170Z,98110.97
2017-10-29T03:27:35.816Z,98100.53
2017-10-29T03:30:03.464Z,98104.24
2017-10-29T03:32:31.057Z,98094.35
2017-10-29T03:34:58.669Z,98098.96
2017-10-29T03:37:26.259Z,98125.42
2017-10-29T03:39:53.884Z,98118.86
2017-10-29T03:42:21.528Z,98111.06
2017-10-29T03:44:49.117Z,98121.34
2017-10-29T03:47:16.748Z,98132.15
2017-10-29T03:49:44.322Z,98138.98
2017-10-29T03:52:12.217Z,98187.17
2017-10-29T03:54:40.084Z,98201.03
2017-10-29T03:57:07.659Z,98220.62
2017-10-29T03:59:35.378Z,98218.08
2017-10-29T04:02:02.963Z,98240.57
2017-10-29T04:04:30.577Z,98192.42
2017-10-29T04:06:58.194Z,98199.17
2017-10-29T04:09:25.870Z,98206.88
2017-10-29T04:11:53.503Z,98190.77
2017-10-29T04:14:21.090Z,98193.66
2017-10-29T04:16:48.684Z,98198.41
2017-10-29T04:19:16.280Z,98167.10
2017-10-29T04:21:43.858Z,98155.43
2017-10-29T04:24:11.478Z,98164.44
2017-10-29T04:26:39.060Z,98179.03
2017-10-29T04:29:06.660Z,98161.59
2017-10-29T04:31:34.274Z,98172.84
2017-10-29T04:34:02.190Z,98150.16
2017-10-29T04:36:29.799Z,98176.34
2017-10-29T04:38:57.417Z,98188.82
2017-10-29T04:41:25.034Z,98226.17
2017-10-29T04:43:52.649Z,98221.36
2017-10-29T04:46:20.232Z,98209.20
2017-10-29T04:48:47.897Z,98184.81
2017-10-29T04:51:15.495Z,98196.20
2017-10-29T04:53:43.386Z,98206.75
2017-10-29T04:56:11.083Z,98206.08
2017-10-29T04:58:38.675Z,98207.36
2017-10-29T05:01:06.319Z,98219.68
2017-10-29T05:03:33.928Z,98213.61
2017-10-29T05:06:01.505Z,98202.86
2017-10-29T05:08:29.369Z,98192.70
2017-10-29T05:10:56.976Z,98197.78
2017-10-29T05:13:24.609Z,98215.08
2017-10-29T05:15:52.192Z,98203.03
2017-10-29T05:18:19.770Z,98199.00
2017-10-29T05:20:47.387Z,98203.17
2017-10-29T05:23:15.270Z,98191.53
2017-10-29T05:25:42.895Z,98218.03
2017-10-29T05:28:10.538Z,98195.58
2017-10-29T05:30:38.144Z,98210.05
2017-10-29T05:33:06.109Z,98207.21
2017-10-29T05:35:33.706Z,98212.52
2017-10-29T05:38:01.318Z,98206.52
2017-10-29T05:40:28.917Z,98199.41
2017-10-29T05:42:56.617Z,98228.61
2017-10-29T05:45:24.242Z,98204.13
2017-10-29T05:47:52.079Z,98210.37
2017-10-29T05:50:19.710Z,98210.11
2017-10-29T05:52:47.308Z,98222.23
2017-10-29T05:55:14.884Z,98239.20
2017-10-29T05:57:42.495Z,98227.92
2017-10-29T06:00:10.129Z,98238.81
2017-10-29T06:02:37.791Z,98197.97
2017-10-29T06:05:05.609Z,98167.41
2017-10-29T06:07:33.202Z,98207.74
2017-10-29T06:10:00.825Z,98193.89
2017-10-29T06:12:28.421Z,98192.23
2017-10-29T06:14:56.045Z,98200.44
2017-10-29T06:17:23.641Z,98222.77
2017-10-29T06:19:51.344Z,98180.02
2017-10-29T06:22:18.956Z,98194.53
2017-10-29T06:24:46.555Z,98191.88
2017-10-29T06:27:14.488Z,98184.84
2017-10-29T06:29:42.072Z,98202.06
2017-10-29T06:32:09.798Z,98204.79
2017-10-29T06:34:37.429Z,98172.72
2017-10-29T06:37:05.187Z,98221.84
2017-10-29T06:39:32.789Z,98198.88
2017-10-29T06:42:00.418Z,98231.91
2017-10-29T06:44:28.075Z,98248.80
2017-10-29T06:46:55.740Z,98266.39
2017-10-29T06:49:23.391Z,98274.56
2017-10-29T06:51:50.996Z,98283.33
2017-10-29T06:54:18.599Z,98277.81
2017-10-29T06:56:46.218Z,98272.16
2017-10-29T06:59:13.874Z,98277.55
2017-10-29T07:01:41.516Z,98288.35
2017-10-29T07:04:09.438Z,98291.53
2017-10-29T07:06:37.036Z,98294.06
2017-10-29T07:09:04.648Z,98303.61
2017-10-29T07:11:32.260Z,98318.17
2017-10-29T07:13:59.925Z,98314.55
2017-10-29T07:16:27.528Z,98325.94
2017-10-29T07:18:55.146Z,98328.83
2017-10-29T07:21:22.791Z,98332.04
2017-10-29T07:23:50.402Z,98332.73
2017-10-29T07:26:18.043Z,98341.47
2017-10-29T07:28:45.704Z,98335.84
2017-10-29T07:31:13.570Z,98337.36
2017-10-29T07:33:41.209Z,98337.88
2017-10-29T07:36:08.811Z,98332.28
2017-10-29T07:38:36.713Z,98326.82
2017-10-29T07:41:04.584Z,98336.33
2017-10-29T07:43:32.600Z,98355.20
2017-10-29T07:46:00.213Z,98347.91
2017-10-29T07:48:28.171Z,98375.66
2017-10-29T07:50:56.056Z,98369.96
2017-10-29T07:53:23.940Z,98403.89
2017-10-29T07:55:51.891Z,98384.77
2017-10-29T07:58:19.774Z,98401.37
2017-10-29T08:00:47.766Z,98418.77
2017-10-29T08:03:15.378Z,98420.22
2017-10-29T08:05:42.982Z,98427.48
2017-10-29T08:08:10.571Z,98425.35
2017-10-29T08:10:38.185Z,98425.16
2017-10-29T08:13:05.782Z,98430.86
2017-10-29T08:15:33.412Z,98440.06
2017-10-29T08:18:01.007Z,98452.39
2017-10-29T08:20:28.633Z,98462.27
2017-10-29T08:22:56.254Z,98484.19
2017-10-29T08:25:23.846Z,98512.13
2017-10-29T08:27:51.487Z,98521.39
2017-10-29T08:30:19.117Z,98543.27
2017-10-29T08:32:47.101Z,98547.78
2017-10-29T08:35:14.860Z,98576.25
2017-10-29T08:37:42.441Z,98604.52
2017-10-29T08:40:10.081Z,98631.33
2017-10-29T08:42:37.671Z,98651.47
2017-10-29T08:45:05.268Z,98671.28
2017-10-29T08:47:32.946Z,98676.02
2017-10-29T08:50:00.584Z,98682.95
2017-10-29T08:52:28.204Z,98712.46
2017-10-29T08:54:55.797Z,98725.77
2017-10-29T08:57:23.387Z,98745.09
2017-10-29T08:59:51.006Z,98765.17
2017-10-29T09:02:18.604Z,98773.23
2017-10-29T09:04:46.245Z,98795.39
2017-10-29T09:07:13.832Z,98813.23
2017-10-29T09:09:41.432Z,98819.32
2017-10-29T09:12:09.347Z,98838.41
2017-10-29T09:14:37.228Z,98854.90
2017-10-29T09:17:04.873Z,98875.73
2017-10-29T09:19:32.469Z,98879.91
2017-10-29T09:22:00.049Z,98900.23
2017-10-29T09:24:27.980Z,98901.34
2017-10-29T09:26:55.577Z,98933.59
2017-10-29T09:29:23.228Z,98948.07
2017-10-29T09:31:50.831Z,98955.03
2017-10-29T09:34:18.483Z,98980.50
2017-10-29T09:36:46.137Z,98980.62
2017-10-29T09:39:13.808Z,98995.56
2017-10-29T09:41:41.459Z,99006.89
2017-10-29T09:44:09.383Z,99020.15
2017-10-29T09:46:36.971Z,99028.71
2017-10-29T09:49:04.565Z,99033.02
2017-10-29T09:51:32.140Z,99053.00
2017-10-29T09:53:59.761Z,99065.66
2017-10-29T09:56:27.359Z,99065.55
2017-10-29T09:58:54.960Z,99088.72
2017-10-29T10:01:22.585Z,99083.66
2017-10-29T10:03:50.195Z,99124.68
2017-10-29T10:06:17.806Z,99133.15
2017-10-29T10:08:45.432Z,99147.00
2017-10-29T10:11:13.361Z,99162.37
2017-10-29T10:13:40.981Z,99162.77
2017-10-29T10:16:08.890Z,99168.88
2017-10-29T10:18:36.767Z,99173.17
2017-10-29T10:21:04.355Z,99187.57
2017-10-29T10:23:32.025Z,99182.68
2017-10-29T10:25:59.642Z,99191.73
2017-10-29T10:28:27.234Z,99205.30
2017-10-29T10:30:55.150Z,99215.06
2017-10-29T10:33:23.058Z,99223.23
2017-10-29T10:35:50.642Z,99230.80
2017-10-29T10:38:18.260Z,99238.45
2017-10-29T10:40:45.867Z,99254.91
2017-10-29T10:43:13.485Z,99261.89
2017-10-29T10:45:41.076Z,99267.82
2017-10-29T10:48:08.656Z,99271.63
2017-10-29T10:50:36.271Z,99281.38
2017-10-29T10:53:03.888Z,99288.58
2017-10-29T10:55:31.503Z,99289.41
2017-10-29T10:57:59.077Z,99304.36
2017-10-29T11:00:26.659Z,99304.09
2017-10-29T11:02:54.315Z,99340.03
2017-10-29T11:05:21.893Z,99354.69
2017-10-29T11:07:49.815Z,99365.52
2017-10-29T11:10:17.388Z,99390.47
2017-10-29T11:12:45.286Z,99411.96
2017-10-29T11:15:12.857Z,99423.05
2017-10-29T11:17:40.449Z,99439.09
2017-10-29T11:20:08.061Z,99453.69
2017-10-29T11:22:35.640Z,99460.72
2017-10-29T11:25:03.556Z,99470.78
2017-10-29T11:27:31.423Z,99471.89
2017-10-29T11:29:59.005Z,99477.33
2017-10-29T11:32:26.877Z,99478.78
2017-10-29T11:34:54.511Z,99483.94
2017-10-29T11:37:22.133Z,99488.19
2017-10-29T11:39:49.806Z,99510.64
2017-10-29T11:42:17.393Z,99524.16
2017-10-29T11:44:45.021Z,99529.77
2017-10-29T11:47:12.630Z,99535.06
2017-10-29T11:49:40.265Z,99541.99
2017-10-29T11:52:07.842Z,99551.99
2017-10-29T11:54:35.432Z,99564.24
2017-10-29T11:57:03.456Z,99568.73
2017-10-29T11:59:42.301Z,99574.62
2017-10-29T12:02:10.020Z,99579.89
2017-10-29T12:04:37.604Z,99594.06
2017-10-29T12:07:05.203Z,99615.38
2017-10-29T12:09:32.946Z,99618.95
2017-10-29T12:12:00.888Z,99621.84
2017-10-29T12:14:28.578Z,99641.84
2017-10-29T12:16:56.200Z,99634.67
2017-10-29T12:19:23.777Z,99642.92
2017-10-29T12:21:51.455Z,99652.23
2017-10-29T12:24:19.033Z,99659.16
2017-10-29T12:26:46.659Z,99674.61
2017-10-29T12:29:14.505Z,99683.88
2017-10-29T12:31:42.140Z,99695.22
2017-10-29T12:34:09.741Z,99711.66
2017-10-29T12:36:37.333Z,99719.99
2017-10-29T12:39:04.969Z,99734.55
2017-10-29T12:41:32.991Z,99741.86
2017-10-29T12:44:00.614Z,99758.73
2017-10-29T12:46:28.217Z,99754.31
2017-10-29T12:48:55.800Z,99730.95
2017-10-29T12:51:23.482Z,99729.44
2017-10-29T12:53:51.247Z,99725.59
2017-10-29T12:56:18.939Z,99721.14
2017-10-29T12:58:46.669Z,99727.08
2017-10-29T13:01:14.250Z,99724.77
2017-10-29T13:03:41.972Z,99735.92
2017-10-29T13:06:10.033Z,99744.28
2017-10-29T13:08:37.629Z,99748.08
2017-10-29T13:11:05.577Z,99754.72
2017-10-29T13:13:33.204Z,99761.11
2017-10-29T13:16:00.885Z,99759.63
2017-10-29T13:18:28.478Z,99778.12
2017-10-29T13:20:56.089Z,99780.73
2017-10-29T13:23:23.688Z,99783.64
2017-10-29T13:25:51.470Z,99792.08
2017-10-29T13:28:19.086Z,99794.97
2017-10-29T13:30:46.780Z,99800.34
2017-10-29T13:33:14.353Z,99803.23
2017-10-29T13:35:41.970Z,99813.23
2017-10-29T13:38:09.877Z,99825.89
2017-10-29T13:40:37.458Z,99821.16
2017-10-29T13:43:05.092Z,99828.86
2017-10-29T13:45:32.679Z,99840.27
2017-10-29T13:48:00.622Z,99852.16
2017-10-29T13:50:28.225Z,99833.95
2017-10-29T13:52:55.818Z,99853.02
2017-10-29T13:55:23.505Z,99860.59
2017-10-29T13:57:51.367Z,99871.54
2017-10-29T14:00:18.941Z,99867.84
2017-10-29T14:02:46.547Z,99871.28
2017-10-29T14:05:14.128Z,99876.27
2017-10-29T14:07:41.777Z,99881.02
2017-10-29T14:10:09.348Z,99889.47
2017-10-29T14:12:36.922Z,99887.17
2017-10-29T14:15:04.515Z,99892.00
2017-10-29T14:17:32.110Z,99896.03
2017-10-29T14:20:00.032Z,99910.91
2017-10-29T14:22:27.676Z,99916.84
2017-10-29T14:24:55.272Z,99920.42
2017-10-29T14:27:22.974Z,99934.89
2017-10-29T14:29:50.836Z,99941.79
2017-10-29T14:32:18.509Z,99927.39
2017-10-29T14:37:19.994Z,99930.34
2017-10-29T14:39:47.609Z,99939.58
2017-10-29T14:42:15.193Z,99947.87
2017-10-29T14:44:42.821Z,99954.42
2017-10-29T14:47:10.783Z,99964.17
2017-10-29T14:49:38.404Z,99966.78
2017-10-29T14:52:06.066Z,99951.30
2017-10-29T14:54:33.666Z,99966.98
2017-10-29T14:57:01.291Z,99970.56
2017-10-29T14:59:28.917Z,99972.34
2017-10-29T15:01:56.613Z,99978.40
2017-10-29T15:04:24.233Z,99982.91
2017-10-29T15:06:51.829Z,99985.45
2017-10-29T15:09:19.577Z,99991.22
2017-10-29T15:11:47.168Z,99993.62
2017-10-29T15:14:14.818Z,100000.50
2017-10-29T15:16:42.441Z,100013.30
2017-10-29T15:19:10.073Z,100009.73
2017-10-29T15:21:37.767Z,100023.64
2017-10-29T15:24:05.580Z,100032.92
2017-10-29T15:26:33.221Z,100044.28
2017-10-29T15:29:00.833Z,100047.38
2017-10-29T15:31:28.428Z,100056.36
2017-10-29T15:33:56.046Z,100067.41
2017-10-29T15:36:23.659Z,100075.38
2017-10-29T15:38:51.330Z,100074.13
2017-10-29T15:41:18.925Z,100083.92
2017-10-29T15:43:46.525Z,100094.39
2017-10-29T15:46:14.144Z,100086.98
2017-10-29T15:48:41.764Z,100096.02
2017-10-29T15:51:09.449Z,100093.73
2017-10-29T15:53:37.069Z,100093.67
2017-10-29T15:56:04.688Z,100089.08
2017-10-29T15:58:32.312Z,100095.06
2017-10-29T16:01:00.291Z,100104.70
2017-10-29T16:03:27.976Z,100119.41
2017-10-29T16:05:55.593Z,100123.72
2017-10-29T16:08:23.317Z,100130.02
2017-10-29T16:10:51.036Z,100133.77
2017-10-29T16:13:18.710Z,100144.08
2017-10-29T16:15:46.354Z,100142.83
2017-10-29T16:18:14.326Z,100149.47
2017-10-29T16:20:41.925Z,100155.04
2017-10-29T16:23:09.550Z,100158.48
2017-10-29T16:25:37.209Z,100162.47
2017-10-29T16:28:04.888Z,100167.48
2017-10-29T16:30:32.635Z,100167.98
2017-10-29T16:33:00.912Z,100170.70
2017-10-29T16:35:28.588Z,100169.09
2017-10-29T16:37:56.181Z,100176.39
2017-10-29T16:40:24.106Z,100172.87
2017-10-29T16:42:51.702Z,100183.71
2017-10-29T16:45:19.325Z,100180.92
2017-10-29T16:47:47.045Z,100195.38
2017-10-29T16:50:14.653Z,100200.53
2017-10-29T16:52:42.743Z,100202.59
2017-10-29T16:55:10.692Z,100211.39
2017-10-29T16:57:38.364Z,100217.45
2017-10-29T17:00:06.007Z,100214.39
2017-10-29T17:02:33.606Z,100214.97
2017-10-29T17:05:01.250Z,100242.12
2017-10-29T17:07:29.110Z,100236.27
2017-10-29T17:09:56.785Z,100243.41
2017-10-29T17:12:24.780Z,100253.58
2017-10-29T17:14:52.418Z,100246.89
2017-10-29T17:17:20.481Z,100252.65
2017-10-29T17:19:48.151Z,100259.84
2017-10-29T17:22:15.789Z,100260.78
2017-10-29T17:24:43.434Z,100268.50
2017-10-29T17:27:11.585Z,100263.61
2017-10-29T17:29:39.293Z,100270.39
2017-10-29T17:32:06.909Z,100276.61
2017-10-29T17:34:34.781Z,100272.92
2017-10-29T17:37:02.420Z,100278.23
2017-10-29T17:39:30.040Z,100275.55
2017-10-29T17:41:57.687Z,100289.08
2017-10-29T17:44:25.289Z,100267.34
2017-10-29T17:46:52.924Z,100279.51
2017-10-29T17:49:21.006Z,100282.09
2017-10-29T17:51:48.718Z,100291.30
2017-10-29T17:54:16.749Z,100288.06
2017-10-29T17:56:44.617Z,100290.47
2017-10-29T17:59:12.215Z,100295.47
2017-10-29T18:01:40.152Z,100304.08
2017-10-29T18:04:07.757Z,100303.85
2017-10-29T18:06:35.389Z,100290.48
2017-10-29T18:09:03.009Z,100298.31
2017-10-29T18:11:30.912Z,100293.18
2017-10-29T18:13:58.536Z,100299.57
2017-10-29T18:16:26.132Z,100302.30
2017-10-29T18:18:53.774Z,100313.40
2017-10-29T18:21:21.350Z,100313.31
2017-10-29T18:23:48.979Z,100326.91
2017-10-29T18:26:16.663Z,100329.13
2017-10-29T18:28:44.651Z,100322.41
2017-10-29T18:31:12.354Z,100328.60
2017-10-29T18:33:39.946Z,100329.77
2017-10-29T18:36:07.846Z,100337.38
2017-10-29T18:38:35.500Z,100336.89
2017-10-29T18:41:03.107Z,100339.48
2017-10-29T18:43:30.739Z,100352.55
2017-10-29T18:45:58.601Z,100351.39
2017-10-29T18:48:26.569Z,100348.23
2017-10-29T18:50:54.197Z,100351.08
2017-10-29T18:53:21.831Z,100363.89
2017-10-29T18:55:49.508Z,100358.61
2017-10-29T18:58:17.157Z,100367.13
2017-10-29T19:00:44.837Z,100367.89
2017-10-29T19:03:12.517Z,100378.92
2017-10-29T19:05:40.199Z,100377.35
2017-10-29T19:08:08.189Z,100381.50
2017-10-29T19:10:35.869Z,100376.92
2017-10-29T19:13:03.512Z,100382.49
2017-10-29T19:15:31.121Z,100382.18
2017-10-29T19:17:58.801Z,100384.31
2017-10-29T19:20:26.552Z,100387.98
2017-10-29T19:22:54.211Z,100394.44
2017-10-29T19:25:21.876Z,100399.27
2017-10-29T19:27:49.525Z,100393.97
2017-10-29T19:30:17.122Z,100402.16
2017-10-29T19:32:44.800Z,100397.61
2017-10-29T19:35:12.427Z,100401.58
2017-10-29T19:37:40.803Z,100403.91
2017-10-29T19:40:08.458Z,100412.88
2017-10-29T19:42:36.179Z,100405.72
2017-10-29T19:45:03.934Z,100412.80
2017-10-29T19:47:31.553Z,100418.50
2017-10-29T19:49:59.407Z,100421.67
2017-10-29T19:52:27.050Z,100420.42
2017-10-29T19:54:54.691Z,100422.83
2017-10-29T19:57:22.678Z,100423.00
2017-10-29T19:59:50.310Z,100433.37
2017-10-29T20:02:17.922Z,100436.68
2017-10-29T20:04:45.597Z,100447.23
2017-10-29T20:07:13.553Z,100434.95
2017-10-29T20:09:41.217Z,100450.97
2017-10-29T20:12:08.821Z,100463.75
2017-10-29T20:14:36.459Z,100467.23
2017-10-29T20:17:04.119Z,100458.00
2017-10-29T20:19:32.045Z,100469.16
2017-10-29T20:21:59.693Z,100475.38
2017-10-29T20:24:27.293Z,100475.79
2017-10-29T20:26:54.884Z,100466.98
2017-10-29T20:29:22.539Z,100485.68
2017-10-29T20:31:52.648Z,100482.86
2017-10-29T20:34:20.296Z,100485.02
2017-10-29T20:36:47.892Z,100487.82
2017-10-29T20:39:15.507Z,100488.67
2017-10-29T20:41:43.517Z,100484.59
2017-10-29T20:44:11.114Z,100491.56
2017-10-29T20:46:39.122Z,100498.02
2017-10-29T20:49:06.730Z,100495.56
2017-10-29T20:51:34.339Z,100504.86
2017-10-29T20:54:02.869Z,100503.92
2017-10-29T20:56:30.534Z,100503.42
2017-10-29T20:58:58.436Z,100500.09
2017-10-29T21:01:26.201Z,100513.06
2017-10-29T21:03:53.810Z,100504.27
2017-10-29T21:06:21.470Z,100509.48
2017-10-29T21:08:49.934Z,100507.66
2017-10-29T21:11:17.535Z,100525.73
2017-10-29T21:13:45.180Z,100520.92
2017-10-29T21:16:12.825Z,100524.98
2017-10-29T21:18:40.773Z,100516.51
2017-10-29T21:21:08.464Z,100518.08
2017-10-29T21:23:36.078Z,100521.13
2017-10-29T21:26:03.671Z,100519.30
2017-10-29T21:28:31.297Z,100524.53
2017-10-29T21:30:58.937Z,100526.13
2017-10-29T21:33:26.571Z,100536.58
2017-10-29T21:35:54.169Z,100536.81
2017-10-29T21:38:21.760Z,100537.88
2017-10-29T21:40:49.410Z,100538.06
2017-10-29T21:43:16.998Z,100535.84
2017-10-29T21:45:44.659Z,100528.87
2017-10-29T21:48:12.267Z,100530.02
2017-10-29T21:50:39.877Z,100530.02
2017-10-29T21:53:07.575Z,100527.27
2017-10-29T21:55:35.206Z,100530.52
2017-10-29T21:58:02.848Z,100527.45
2017-10-29T22:00:30.519Z,100535.33
2017-10-29T22:02:58.101Z,100544.93
2017-10-29T22:05:25.746Z,100547.35
2017-10-29T22:07:53.733Z,100545.14
2017-10-29T22:10:21.372Z,100547.95
2017-10-29T22:12:48.998Z,100556.75
2017-10-29T22:15:16.592Z,100556.07
2017-10-29T22:17:44.256Z,100551.23
2017-10-29T22:20:11.902Z,100549.17
2017-10-29T22:22:39.571Z,100553.66
2017-10-29T22:25:07.155Z,100553.16
2017-10-29T22:27:34.744Z,100556.54
2017-10-29T22:30:02.362Z,100563.09
2017-10-29T22:32:29.972Z,100560.10
2017-10-29T22:34:58.023Z,100563.85
2017-10-29T22:37:25.889Z,100561.84
2017-10-29T22:39:53.519Z,100568.75
2017-10-29T22:42:21.132Z,100577.95
2017-10-29T22:44:48.724Z,100570.23
2017-10-29T22:47:16.338Z,100578.00
2017-10-29T22:49:43.980Z,100577.84
2017-10-29T22:52:12.955Z,100583.16
2017-10-29T22:54:40.544Z,100585.73
2017-10-29T22:57:08.148Z,100577.36
2017-10-29T22:59:35.776Z,100588.08
2017-10-29T23:02:03.386Z,100597.79
2017-10-29T23:04:31.066Z,100592.63
2017-10-29T23:06:58.661Z,100604.05
2017-10-29T23:09:26.291Z,100610.53
2017-10-29T23:11:53.948Z,100610.03
2017-10-29T23:14:21.873Z,100611.94
2017-10-29T23:16:49.504Z,100613.60
2017-10-29T23:19:17.119Z,100616.25
2017-10-29T23:21:45.061Z,100624.63
2017-10-29T23:24:12.694Z,100627.11
2017-10-29T23:26:40.336Z,100622.28
2017-10-29T23:29:07.996Z,100626.95
2017-10-29T23:31:35.654Z,100623.69
2017-10-29T23:34:03.232Z,100626.30
2017-10-29T23:36:30.888Z,100623.69
2017-10-29T23:38:58.471Z,100631.54
2017-10-29T23:41:26.109Z,100634.00
2017-10-29T23:43:53.696Z,100643.25
2017-10-29T23:46:21.335Z,100633.63
2017-10-29T23:48:49.245Z,100642.37
2017-10-29T23:51:16.867Z,100648.47
2017-10-29T23:53:44.553Z,100644.15
2017-10-29T23:56:12.142Z,100648.69
2017-10-29T23:58:40.110Z,100653.20
